Slater, IA (50244)

3:47 AM CST on December 20, 2014 (GMT -0600)
Benton Street | Change Station
CLOSE
Current Station
Personal Weather Station
Location: Slater, IA
Elevation: 1001 ft
Nearby Weather Stations

Elev 1001 ft 41.88 °N, 93.68 °W | Updated 6 seconds ago

Overcast
Overcast
30.4 °F
Feels Like 30 °F
N
0.0
Wind Variable Wind from SSE
Gusts 0.0 mph

Today
High -- | Low -- °F
--% Chance of Precip.
Yesterday
High -- | Low -- °F
Precip. -- in
7:38 AM 4:46 PM
Waning Crescent, 4% visible
Pressure 30.17 in
Visibility 2.0 miles
Clouds Overcast 200 ft
Windchill 30 °F
Dew Point 30 °F
Humidity 100%
Rainfall 0.00 in
Snow Depth Not available.
UV 0 out of 12
Pollen .10 out of 12
Air Quality Not available.
Flu Activity Not available.
SPECI KAMW 200930Z AUTO 14003KT 2SM BR OVC002 M01/M02 A3017 RMK AO2 SNB11E22 P0000 T10111017

More Conditions Fewer Conditions

Pressure 30.17 in
Visibility 2.0 miles
Clouds Overcast 200 ft
Windchill 30 °F
Dew Point 30 °F
Humidity 100%
Rainfall 0.00 in
Snow Depth Not available.
UV 0 out of 12
Pollen .10 out of 12
Air Quality Not available.
Flu Activity Not available.
SPECI KAMW 200930Z AUTO 14003KT 2SM BR OVC002 M01/M02 A3017 RMK AO2 SNB11E22 P0000 T10111017

More Conditions Fewer Conditions

10-Day Weather Forecast

Almanac

Astronomy

Dec. 20, 2014 Rise Set
Actual Time
Civil Twilight
Nautical Twilight
Astronomical Twilight
Moon
Length of Visible Light
Length of Day
Tomorrow will be .
, % of the Moon is Illuminated

Today's Extremes

State Highs State Lows

Community

WunderPhotos

Upload Photos

1,779,150 photos uploaded!

WunderBlogs® & News

Nearby

Air Quality

  Air Quality AQ Index Pollutant
Not available.

Snow Depth

Station Depth Elevation

Earthquake Activity

City Distance Mag. Time & Date
Minimum magnitude displayed is 2.5.

Coastal Water Temperatures

Place Temperature

Nearby Weather Stations